sensor_id;sensor_type;location;lat;lon;timestamp;P1;durP1;ratioP1;P2;durP2;ratioP2
43813;SDS011;29669;55.706;37.656;2023-12-28T00:00:50;6.55;;;2.88;;
43813;SDS011;29669;55.706;37.656;2023-12-28T00:03:18;4.05;;;2.33;;
43813;SDS011;29669;55.706;37.656;2023-12-28T00:05:46;4.80;;;2.67;;
43813;SDS011;29669;55.706;37.656;2023-12-28T00:08:13;4.72;;;2.70;;
43813;SDS011;29669;55.706;37.656;2023-12-28T00:10:41;4.65;;;2.88;;
43813;SDS011;29669;55.706;37.656;2023-12-28T00:13:08;4.22;;;2.28;;
43813;SDS011;29669;55.706;37.656;2023-12-28T00:15:35;4.57;;;2.90;;
43813;SDS011;29669;55.706;37.656;2023-12-28T00:18:03;4.32;;;2.55;;
43813;SDS011;29669;55.706;37.656;2023-12-28T00:20:31;4.25;;;2.95;;
43813;SDS011;29669;55.706;37.656;2023-12-28T00:22:59;4.65;;;2.22;;
43813;SDS011;29669;55.706;37.656;2023-12-28T00:25:27;3.88;;;2.20;;
43813;SDS011;29669;55.706;37.656;2023-12-28T00:27:55;3.60;;;2.13;;
43813;SDS011;29669;55.706;37.656;2023-12-28T00:30:23;3.78;;;2.38;;
43813;SDS011;29669;55.706;37.656;2023-12-28T00:32:51;2.67;;;2.33;;
43813;SDS011;29669;55.706;37.656;2023-12-28T00:35:19;4.20;;;2.10;;
43813;SDS011;29669;55.706;37.656;2023-12-28T00:37:50;4.10;;;2.47;;
43813;SDS011;29669;55.706;37.656;2023-12-28T00:40:18;3.47;;;2.55;;
43813;SDS011;29669;55.706;37.656;2023-12-28T00:42:48;3.80;;;2.30;;
43813;SDS011;29669;55.706;37.656;2023-12-28T00:45:19;3.67;;;1.88;;
43813;SDS011;29669;55.706;37.656;2023-12-28T00:47:47;1.83;;;1.65;;
43813;SDS011;29669;55.706;37.656;2023-12-28T00:50:15;2.45;;;2.10;;
43813;SDS011;29669;55.706;37.656;2023-12-28T00:52:43;2.88;;;2.25;;
43813;SDS011;29669;55.706;37.656;2023-12-28T00:55:10;3.05;;;2.33;;
43813;SDS011;29669;55.706;37.656;2023-12-28T00:57:38;2.17;;;1.90;;
43813;SDS011;29669;55.706;37.656;2023-12-28T01:00:07;3.33;;;2.13;;
43813;SDS011;29669;55.706;37.656;2023-12-28T01:02:36;2.72;;;1.58;;
43813;SDS011;29669;55.706;37.656;2023-12-28T01:05:03;3.15;;;2.00;;
43813;SDS011;29669;55.706;37.656;2023-12-28T01:07:31;3.15;;;2.22;;
43813;SDS011;29669;55.706;37.656;2023-12-28T01:09:59;3.28;;;2.10;;
43813;SDS011;29669;55.706;37.656;2023-12-28T01:12:30;2.75;;;1.80;;
43813;SDS011;29669;55.706;37.656;2023-12-28T01:15:02;2.92;;;1.92;;
43813;SDS011;29669;55.706;37.656;2023-12-28T01:17:31;2.83;;;2.20;;
43813;SDS011;29669;55.706;37.656;2023-12-28T01:20:10;2.35;;;1.80;;
43813;SDS011;29669;55.706;37.656;2023-12-28T01:22:40;3.22;;;1.98;;
43813;SDS011;29669;55.706;37.656;2023-12-28T01:25:08;5.50;;;2.10;;
43813;SDS011;29669;55.706;37.656;2023-12-28T01:27:36;2.08;;;1.73;;
43813;SDS011;29669;55.706;37.656;2023-12-28T01:30:04;3.72;;;1.98;;
43813;SDS011;29669;55.706;37.656;2023-12-28T01:32:33;1.92;;;1.75;;
43813;SDS011;29669;55.706;37.656;2023-12-28T01:35:01;2.45;;;1.65;;
43813;SDS011;29669;55.706;37.656;2023-12-28T01:37:30;3.13;;;1.95;;
43813;SDS011;29669;55.706;37.656;2023-12-28T01:40:00;3.80;;;2.05;;
43813;SDS011;29669;55.706;37.656;2023-12-28T01:42:30;2.60;;;1.70;;
43813;SDS011;29669;55.706;37.656;2023-12-28T01:44:58;2.58;;;1.88;;
43813;SDS011;29669;55.706;37.656;2023-12-28T01:47:26;2.25;;;2.00;;
43813;SDS011;29669;55.706;37.656;2023-12-28T01:49:54;2.13;;;1.35;;
43813;SDS011;29669;55.706;37.656;2023-12-28T01:52:23;3.60;;;2.35;;
43813;SDS011;29669;55.706;37.656;2023-12-28T01:54:50;2.58;;;1.83;;
43813;SDS011;29669;55.706;37.656;2023-12-28T01:57:18;2.45;;;1.75;;
43813;SDS011;29669;55.706;37.656;2023-12-28T01:59:46;2.20;;;1.83;;
43813;SDS011;29669;55.706;37.656;2023-12-28T02:02:15;4.15;;;2.33;;
43813;SDS011;29669;55.706;37.656;2023-12-28T02:04:43;3.53;;;1.83;;
43813;SDS011;29669;55.706;37.656;2023-12-28T02:07:12;2.40;;;2.08;;
43813;SDS011;29669;55.706;37.656;2023-12-28T02:09:40;2.85;;;1.92;;
43813;SDS011;29669;55.706;37.656;2023-12-28T02:12:08;2.50;;;2.15;;
43813;SDS011;29669;55.706;37.656;2023-12-28T02:14:36;4.47;;;2.03;;
43813;SDS011;29669;55.706;37.656;2023-12-28T02:17:05;2.20;;;1.75;;
43813;SDS011;29669;55.706;37.656;2023-12-28T02:19:46;2.78;;;2.20;;
43813;SDS011;29669;55.706;37.656;2023-12-28T02:22:17;3.97;;;2.10;;
43813;SDS011;29669;55.706;37.656;2023-12-28T02:27:34;3.72;;;2.28;;
43813;SDS011;29669;55.706;37.656;2023-12-28T02:30:05;2.53;;;1.73;;
43813;SDS011;29669;55.706;37.656;2023-12-28T02:35:16;2.45;;;2.13;;
43813;SDS011;29669;55.706;37.656;2023-12-28T02:37:47;3.58;;;2.20;;
43813;SDS011;29669;55.706;37.656;2023-12-28T02:40:19;3.97;;;2.22;;
43813;SDS011;29669;55.706;37.656;2023-12-28T02:42:49;2.47;;;1.75;;
43813;SDS011;29669;55.706;37.656;2023-12-28T02:45:17;2.33;;;1.98;;
43813;SDS011;29669;55.706;37.656;2023-12-28T02:47:46;4.57;;;2.58;;
43813;SDS011;29669;55.706;37.656;2023-12-28T02:50:13;3.00;;;2.50;;
43813;SDS011;29669;55.706;37.656;2023-12-28T02:52:40;3.65;;;2.80;;
43813;SDS011;29669;55.706;37.656;2023-12-28T02:55:08;2.97;;;2.40;;
43813;SDS011;29669;55.706;37.656;2023-12-28T02:57:35;4.22;;;2.47;;
43813;SDS011;29669;55.706;37.656;2023-12-28T03:00:05;4.70;;;2.30;;
43813;SDS011;29669;55.706;37.656;2023-12-28T03:02:33;3.17;;;2.30;;
43813;SDS011;29669;55.706;37.656;2023-12-28T03:05:00;3.05;;;2.33;;
43813;SDS011;29669;55.706;37.656;2023-12-28T03:07:28;6.38;;;2.67;;
43813;SDS011;29669;55.706;37.656;2023-12-28T03:09:56;2.45;;;2.15;;
43813;SDS011;29669;55.706;37.656;2023-12-28T03:12:24;3.33;;;1.90;;
43813;SDS011;29669;55.706;37.656;2023-12-28T03:14:51;2.35;;;1.92;;
43813;SDS011;29669;55.706;37.656;2023-12-28T03:17:19;2.30;;;1.98;;
43813;SDS011;29669;55.706;37.656;2023-12-28T03:19:46;3.45;;;2.28;;
43813;SDS011;29669;55.706;37.656;2023-12-28T03:22:14;4.03;;;2.30;;
43813;SDS011;29669;55.706;37.656;2023-12-28T03:24:42;2.53;;;2.10;;
43813;SDS011;29669;55.706;37.656;2023-12-28T03:27:10;2.60;;;2.40;;
43813;SDS011;29669;55.706;37.656;2023-12-28T03:29:38;2.67;;;2.10;;
43813;SDS011;29669;55.706;37.656;2023-12-28T03:32:05;2.47;;;2.00;;
43813;SDS011;29669;55.706;37.656;2023-12-28T03:34:33;5.43;;;2.60;;
43813;SDS011;29669;55.706;37.656;2023-12-28T03:37:01;3.83;;;2.60;;
43813;SDS011;29669;55.706;37.656;2023-12-28T03:39:29;4.85;;;2.42;;
43813;SDS011;29669;55.706;37.656;2023-12-28T03:41:56;4.10;;;2.30;;
43813;SDS011;29669;55.706;37.656;2023-12-28T03:44:24;2.60;;;1.65;;
43813;SDS011;29669;55.706;37.656;2023-12-28T03:46:51;4.45;;;2.72;;
43813;SDS011;29669;55.706;37.656;2023-12-28T03:49:19;2.83;;;2.22;;
43813;SDS011;29669;55.706;37.656;2023-12-28T03:51:49;4.93;;;2.42;;
43813;SDS011;29669;55.706;37.656;2023-12-28T03:54:17;2.60;;;2.13;;
43813;SDS011;29669;55.706;37.656;2023-12-28T03:56:46;2.90;;;2.38;;
43813;SDS011;29669;55.706;37.656;2023-12-28T03:59:14;4.28;;;2.47;;
43813;SDS011;29669;55.706;37.656;2023-12-28T04:01:45;3.40;;;2.28;;
43813;SDS011;29669;55.706;37.656;2023-12-28T04:04:12;3.22;;;2.38;;
43813;SDS011;29669;55.706;37.656;2023-12-28T04:06:40;2.30;;;1.83;;
43813;SDS011;29669;55.706;37.656;2023-12-28T04:09:13;3.72;;;2.40;;
43813;SDS011;29669;55.706;37.656;2023-12-28T04:11:41;3.70;;;2.30;;
43813;SDS011;29669;55.706;37.656;2023-12-28T04:14:09;4.72;;;2.20;;
43813;SDS011;29669;55.706;37.656;2023-12-28T04:16:37;4.95;;;2.80;;
43813;SDS011;29669;55.706;37.656;2023-12-28T04:19:04;3.20;;;2.17;;
43813;SDS011;29669;55.706;37.656;2023-12-28T04:21:32;3.88;;;2.50;;
43813;SDS011;29669;55.706;37.656;2023-12-28T04:24:00;4.78;;;2.78;;
43813;SDS011;29669;55.706;37.656;2023-12-28T04:26:28;4.65;;;2.78;;
43813;SDS011;29669;55.706;37.656;2023-12-28T04:28:56;2.88;;;2.42;;
43813;SDS011;29669;55.706;37.656;2023-12-28T04:31:23;3.83;;;2.63;;
43813;SDS011;29669;55.706;37.656;2023-12-28T04:33:51;3.25;;;2.42;;
43813;SDS011;29669;55.706;37.656;2023-12-28T04:36:19;4.95;;;3.17;;
43813;SDS011;29669;55.706;37.656;2023-12-28T04:38:47;2.28;;;1.90;;
43813;SDS011;29669;55.706;37.656;2023-12-28T04:41:15;3.65;;;2.63;;
43813;SDS011;29669;55.706;37.656;2023-12-28T04:43:43;2.90;;;2.03;;
43813;SDS011;29669;55.706;37.656;2023-12-28T04:46:10;2.45;;;2.25;;
43813;SDS011;29669;55.706;37.656;2023-12-28T04:48:38;3.08;;;2.20;;
43813;SDS011;29669;55.706;37.656;2023-12-28T04:51:06;3.25;;;2.10;;
43813;SDS011;29669;55.706;37.656;2023-12-28T04:53:33;3.78;;;2.00;;
43813;SDS011;29669;55.706;37.656;2023-12-28T04:56:02;3.35;;;2.28;;
43813;SDS011;29669;55.706;37.656;2023-12-28T04:58:29;2.33;;;1.77;;
43813;SDS011;29669;55.706;37.656;2023-12-28T05:00:57;3.67;;;2.03;;
43813;SDS011;29669;55.706;37.656;2023-12-28T05:03:24;3.35;;;2.65;;
43813;SDS011;29669;55.706;37.656;2023-12-28T05:05:52;3.35;;;2.10;;
43813;SDS011;29669;55.706;37.656;2023-12-28T05:08:19;3.42;;;2.13;;
43813;SDS011;29669;55.706;37.656;2023-12-28T05:10:47;3.42;;;2.50;;
43813;SDS011;29669;55.706;37.656;2023-12-28T05:13:14;2.00;;;1.80;;
43813;SDS011;29669;55.706;37.656;2023-12-28T05:15:42;3.22;;;2.45;;
43813;SDS011;29669;55.706;37.656;2023-12-28T05:18:09;2.78;;;1.88;;
43813;SDS011;29669;55.706;37.656;2023-12-28T05:20:37;3.67;;;1.70;;
43813;SDS011;29669;55.706;37.656;2023-12-28T05:23:06;3.00;;;2.00;;
43813;SDS011;29669;55.706;37.656;2023-12-28T05:25:34;2.88;;;2.33;;
43813;SDS011;29669;55.706;37.656;2023-12-28T05:28:02;3.92;;;2.10;;
43813;SDS011;29669;55.706;37.656;2023-12-28T05:30:30;3.65;;;2.63;;
43813;SDS011;29669;55.706;37.656;2023-12-28T05:33:06;3.30;;;2.38;;
43813;SDS011;29669;55.706;37.656;2023-12-28T05:35:34;2.72;;;2.22;;
43813;SDS011;29669;55.706;37.656;2023-12-28T05:38:02;2.92;;;2.47;;
43813;SDS011;29669;55.706;37.656;2023-12-28T05:40:31;2.90;;;2.28;;
43813;SDS011;29669;55.706;37.656;2023-12-28T05:42:59;3.85;;;3.10;;
43813;SDS011;29669;55.706;37.656;2023-12-28T05:45:27;2.90;;;2.28;;
43813;SDS011;29669;55.706;37.656;2023-12-28T05:47:55;3.75;;;2.20;;
43813;SDS011;29669;55.706;37.656;2023-12-28T05:50:24;3.15;;;2.28;;
43813;SDS011;29669;55.706;37.656;2023-12-28T05:52:51;3.40;;;1.95;;
43813;SDS011;29669;55.706;37.656;2023-12-28T05:55:18;5.28;;;3.03;;
43813;SDS011;29669;55.706;37.656;2023-12-28T05:57:46;4.13;;;2.25;;
43813;SDS011;29669;55.706;37.656;2023-12-28T06:00:14;3.10;;;2.38;;
43813;SDS011;29669;55.706;37.656;2023-12-28T06:02:42;4.47;;;2.78;;
43813;SDS011;29669;55.706;37.656;2023-12-28T06:05:11;8.55;;;2.67;;
43813;SDS011;29669;55.706;37.656;2023-12-28T06:07:45;3.55;;;2.45;;
43813;SDS011;29669;55.706;37.656;2023-12-28T06:10:14;9.73;;;3.42;;
43813;SDS011;29669;55.706;37.656;2023-12-28T06:12:42;4.07;;;2.70;;
43813;SDS011;29669;55.706;37.656;2023-12-28T06:15:13;4.13;;;2.40;;
43813;SDS011;29669;55.706;37.656;2023-12-28T06:17:49;3.85;;;2.60;;
43813;SDS011;29669;55.706;37.656;2023-12-28T06:20:17;7.65;;;2.63;;
43813;SDS011;29669;55.706;37.656;2023-12-28T06:22:49;4.82;;;2.85;;
43813;SDS011;29669;55.706;37.656;2023-12-28T06:26:11;6.05;;;3.05;;
43813;SDS011;29669;55.706;37.656;2023-12-28T06:32:52;2.80;;;2.08;;
43813;SDS011;29669;55.706;37.656;2023-12-28T06:36:22;4.90;;;3.08;;
43813;SDS011;29669;55.706;37.656;2023-12-28T07:10:30;6.05;;;4.03;;
43813;SDS011;29669;55.706;37.656;2023-12-28T07:12:58;3.88;;;2.92;;
43813;SDS011;29669;55.706;37.656;2023-12-28T07:15:26;5.00;;;3.08;;
43813;SDS011;29669;55.706;37.656;2023-12-28T07:18:20;4.22;;;3.13;;
43813;SDS011;29669;55.706;37.656;2023-12-28T07:21:56;5.82;;;3.55;;
43813;SDS011;29669;55.706;37.656;2023-12-28T07:24:58;4.30;;;2.70;;
43813;SDS011;29669;55.706;37.656;2023-12-28T07:27:26;3.80;;;2.53;;
43813;SDS011;29669;55.706;37.656;2023-12-28T07:29:54;5.40;;;2.85;;
43813;SDS011;29669;55.706;37.656;2023-12-28T07:32:21;3.88;;;2.58;;
43813;SDS011;29669;55.706;37.656;2023-12-28T07:34:53;3.75;;;2.88;;
43813;SDS011;29669;55.706;37.656;2023-12-28T07:37:21;4.07;;;2.80;;
43813;SDS011;29669;55.706;37.656;2023-12-28T07:39:51;3.97;;;2.80;;
43813;SDS011;29669;55.706;37.656;2023-12-28T07:47:20;4.70;;;3.10;;
43813;SDS011;29669;55.706;37.656;2023-12-28T07:50:05;4.50;;;2.83;;
43813;SDS011;29669;55.706;37.656;2023-12-28T07:54:10;5.82;;;3.05;;
43813;SDS011;29669;55.706;37.656;2023-12-28T07:59:23;7.20;;;4.00;;
43813;SDS011;29669;55.706;37.656;2023-12-28T08:01:52;5.35;;;2.83;;
43813;SDS011;29669;55.706;37.656;2023-12-28T08:04:25;8.35;;;3.67;;
43813;SDS011;29669;55.706;37.656;2023-12-28T08:07:31;4.93;;;2.10;;
43813;SDS011;29669;55.706;37.656;2023-12-28T08:10:03;4.78;;;2.90;;
43813;SDS011;29669;55.706;37.656;2023-12-28T08:12:32;5.68;;;2.65;;
43813;SDS011;29669;55.706;37.656;2023-12-28T08:15:42;3.42;;;2.67;;
43813;SDS011;29669;55.706;37.656;2023-12-28T08:18:18;5.80;;;3.05;;
43813;SDS011;29669;55.706;37.656;2023-12-28T08:20:46;6.55;;;2.63;;
43813;SDS011;29669;55.706;37.656;2023-12-28T08:23:16;3.75;;;2.63;;
43813;SDS011;29669;55.706;37.656;2023-12-28T08:25:45;4.50;;;3.33;;
43813;SDS011;29669;55.706;37.656;2023-12-28T08:28:13;5.20;;;3.03;;
43813;SDS011;29669;55.706;37.656;2023-12-28T08:30:41;5.85;;;3.33;;
43813;SDS011;29669;55.706;37.656;2023-12-28T08:33:09;2.80;;;2.60;;
43813;SDS011;29669;55.706;37.656;2023-12-28T08:35:37;4.40;;;2.35;;
43813;SDS011;29669;55.706;37.656;2023-12-28T08:38:22;8.20;;;4.18;;
43813;SDS011;29669;55.706;37.656;2023-12-28T08:44:10;6.28;;;2.80;;
43813;SDS011;29669;55.706;37.656;2023-12-28T08:46:45;10.63;;;5.78;;
43813;SDS011;29669;55.706;37.656;2023-12-28T08:49:13;9.93;;;5.63;;
43813;SDS011;29669;55.706;37.656;2023-12-28T08:51:43;7.38;;;4.07;;
43813;SDS011;29669;55.706;37.656;2023-12-28T08:54:11;3.38;;;2.35;;
43813;SDS011;29669;55.706;37.656;2023-12-28T08:56:42;4.80;;;2.78;;
43813;SDS011;29669;55.706;37.656;2023-12-28T08:59:10;6.88;;;3.00;;
43813;SDS011;29669;55.706;37.656;2023-12-28T09:01:38;3.55;;;2.47;;
43813;SDS011;29669;55.706;37.656;2023-12-28T09:04:06;2.92;;;2.20;;
43813;SDS011;29669;55.706;37.656;2023-12-28T09:06:34;3.88;;;2.55;;
43813;SDS011;29669;55.706;37.656;2023-12-28T09:09:11;4.80;;;2.63;;
43813;SDS011;29669;55.706;37.656;2023-12-28T09:11:39;6.00;;;3.20;;
43813;SDS011;29669;55.706;37.656;2023-12-28T09:14:07;4.28;;;2.92;;
43813;SDS011;29669;55.706;37.656;2023-12-28T09:16:34;3.75;;;2.90;;
43813;SDS011;29669;55.706;37.656;2023-12-28T09:19:05;3.35;;;2.70;;
43813;SDS011;29669;55.706;37.656;2023-12-28T09:21:34;6.75;;;3.75;;
43813;SDS011;29669;55.706;37.656;2023-12-28T09:24:02;5.45;;;3.45;;
43813;SDS011;29669;55.706;37.656;2023-12-28T09:26:29;5.05;;;3.28;;
43813;SDS011;29669;55.706;37.656;2023-12-28T09:28:58;5.53;;;3.67;;
43813;SDS011;29669;55.706;37.656;2023-12-28T09:31:26;5.70;;;3.30;;
43813;SDS011;29669;55.706;37.656;2023-12-28T09:33:54;5.88;;;3.40;;
43813;SDS011;29669;55.706;37.656;2023-12-28T09:36:22;8.60;;;4.28;;
43813;SDS011;29669;55.706;37.656;2023-12-28T09:38:49;6.47;;;3.88;;
43813;SDS011;29669;55.706;37.656;2023-12-28T09:41:18;7.45;;;3.90;;
43813;SDS011;29669;55.706;37.656;2023-12-28T09:44:35;8.38;;;4.68;;
43813;SDS011;29669;55.706;37.656;2023-12-28T09:46:41;9.60;;;5.07;;
43813;SDS011;29669;55.706;37.656;2023-12-28T09:52:51;6.75;;;4.45;;
43813;SDS011;29669;55.706;37.656;2023-12-28T09:55:24;12.80;;;6.60;;
43813;SDS011;29669;55.706;37.656;2023-12-28T09:58:01;9.38;;;4.88;;
43813;SDS011;29669;55.706;37.656;2023-12-28T10:01:01;8.90;;;5.80;;
43813;SDS011;29669;55.706;37.656;2023-12-28T10:03:30;9.52;;;4.07;;
43813;SDS011;29669;55.706;37.656;2023-12-28T10:06:01;6.60;;;3.95;;
43813;SDS011;29669;55.706;37.656;2023-12-28T10:08:29;6.22;;;4.35;;
43813;SDS011;29669;55.706;37.656;2023-12-28T10:10:57;5.38;;;3.40;;
43813;SDS011;29669;55.706;37.656;2023-12-28T10:13:26;8.77;;;5.57;;
43813;SDS011;29669;55.706;37.656;2023-12-28T10:15:57;11.30;;;5.97;;
43813;SDS011;29669;55.706;37.656;2023-12-28T10:18:25;9.95;;;4.25;;
43813;SDS011;29669;55.706;37.656;2023-12-28T10:20:53;5.22;;;3.47;;
43813;SDS011;29669;55.706;37.656;2023-12-28T10:23:21;8.48;;;4.32;;
43813;SDS011;29669;55.706;37.656;2023-12-28T10:25:50;9.30;;;5.78;;
43813;SDS011;29669;55.706;37.656;2023-12-28T10:28:20;8.27;;;5.03;;
43813;SDS011;29669;55.706;37.656;2023-12-28T10:30:47;10.15;;;4.88;;
43813;SDS011;29669;55.706;37.656;2023-12-28T10:33:16;8.98;;;4.63;;
43813;SDS011;29669;55.706;37.656;2023-12-28T10:35:47;12.60;;;7.40;;
43813;SDS011;29669;55.706;37.656;2023-12-28T10:38:20;9.88;;;5.07;;
43813;SDS011;29669;55.706;37.656;2023-12-28T10:40:47;8.90;;;5.55;;
43813;SDS011;29669;55.706;37.656;2023-12-28T10:43:16;4.90;;;3.35;;
43813;SDS011;29669;55.706;37.656;2023-12-28T10:45:58;6.60;;;4.53;;
43813;SDS011;29669;55.706;37.656;2023-12-28T10:48:28;8.52;;;4.40;;
43813;SDS011;29669;55.706;37.656;2023-12-28T10:57:32;10.50;;;6.10;;
43813;SDS011;29669;55.706;37.656;2023-12-28T11:00:16;15.02;;;6.90;;
43813;SDS011;29669;55.706;37.656;2023-12-28T11:02:54;7.07;;;4.60;;
43813;SDS011;29669;55.706;37.656;2023-12-28T11:05:31;10.50;;;4.82;;
43813;SDS011;29669;55.706;37.656;2023-12-28T11:08:00;6.03;;;3.95;;
43813;SDS011;29669;55.706;37.656;2023-12-28T11:10:30;8.77;;;5.03;;
43813;SDS011;29669;55.706;37.656;2023-12-28T11:13:09;9.57;;;4.32;;
43813;SDS011;29669;55.706;37.656;2023-12-28T11:15:44;7.57;;;4.22;;
43813;SDS011;29669;55.706;37.656;2023-12-28T11:18:22;9.07;;;4.55;;
43813;SDS011;29669;55.706;37.656;2023-12-28T11:25:14;7.22;;;3.55;;
43813;SDS011;29669;55.706;37.656;2023-12-28T11:27:40;3.72;;;2.70;;
43813;SDS011;29669;55.706;37.656;2023-12-28T12:02:50;4.47;;;2.58;;
43813;SDS011;29669;55.706;37.656;2023-12-28T12:05:49;3.33;;;2.38;;
43813;SDS011;29669;55.706;37.656;2023-12-28T12:09:02;7.85;;;4.15;;
43813;SDS011;29669;55.706;37.656;2023-12-28T12:15:42;3.65;;;2.45;;
43813;SDS011;29669;55.706;37.656;2023-12-28T12:19:49;2.20;;;1.92;;
43813;SDS011;29669;55.706;37.656;2023-12-28T12:26:54;3.42;;;2.22;;
43813;SDS011;29669;55.706;37.656;2023-12-28T12:29:22;6.70;;;3.20;;
43813;SDS011;29669;55.706;37.656;2023-12-28T12:31:56;5.57;;;2.75;;
43813;SDS011;29669;55.706;37.656;2023-12-28T12:34:29;6.30;;;3.35;;
43813;SDS011;29669;55.706;37.656;2023-12-28T12:36:57;5.07;;;3.42;;
43813;SDS011;29669;55.706;37.656;2023-12-28T12:39:26;3.38;;;2.95;;
43813;SDS011;29669;55.706;37.656;2023-12-28T12:41:54;4.97;;;2.30;;
43813;SDS011;29669;55.706;37.656;2023-12-28T12:44:24;2.60;;;2.17;;
43813;SDS011;29669;55.706;37.656;2023-12-28T12:46:58;3.70;;;2.42;;
43813;SDS011;29669;55.706;37.656;2023-12-28T12:49:27;2.45;;;2.10;;
43813;SDS011;29669;55.706;37.656;2023-12-28T12:51:56;2.30;;;2.00;;
43813;SDS011;29669;55.706;37.656;2023-12-28T12:54:28;3.67;;;2.60;;
43813;SDS011;29669;55.706;37.656;2023-12-28T12:56:56;1.80;;;1.45;;
43813;SDS011;29669;55.706;37.656;2023-12-28T12:59:27;3.55;;;2.08;;
43813;SDS011;29669;55.706;37.656;2023-12-28T13:01:55;2.72;;;2.20;;
43813;SDS011;29669;55.706;37.656;2023-12-28T13:04:23;10.13;;;3.97;;
43813;SDS011;29669;55.706;37.656;2023-12-28T13:06:51;5.22;;;2.30;;
43813;SDS011;29669;55.706;37.656;2023-12-28T13:09:18;2.40;;;2.20;;
43813;SDS011;29669;55.706;37.656;2023-12-28T13:11:46;2.75;;;1.75;;
43813;SDS011;29669;55.706;37.656;2023-12-28T13:14:17;2.47;;;1.60;;
43813;SDS011;29669;55.706;37.656;2023-12-28T13:16:48;2.42;;;1.83;;
43813;SDS011;29669;55.706;37.656;2023-12-28T13:19:24;2.85;;;2.00;;
43813;SDS011;29669;55.706;37.656;2023-12-28T13:21:54;2.67;;;2.13;;
43813;SDS011;29669;55.706;37.656;2023-12-28T13:24:22;6.07;;;1.90;;
43813;SDS011;29669;55.706;37.656;2023-12-28T13:26:50;5.47;;;2.30;;
43813;SDS011;29669;55.706;37.656;2023-12-28T13:29:17;3.63;;;1.90;;
43813;SDS011;29669;55.706;37.656;2023-12-28T13:31:45;2.72;;;2.42;;
43813;SDS011;29669;55.706;37.656;2023-12-28T13:34:17;2.67;;;2.05;;
43813;SDS011;29669;55.706;37.656;2023-12-28T13:36:50;2.70;;;2.10;;
43813;SDS011;29669;55.706;37.656;2023-12-28T13:39:36;4.37;;;2.83;;
43813;SDS011;29669;55.706;37.656;2023-12-28T13:43:00;5.93;;;3.67;;
43813;SDS011;29669;55.706;37.656;2023-12-28T14:15:36;3.90;;;2.90;;
43813;SDS011;29669;55.706;37.656;2023-12-28T14:18:19;4.68;;;2.03;;
43813;SDS011;29669;55.706;37.656;2023-12-28T14:20:47;3.10;;;2.30;;
43813;SDS011;29669;55.706;37.656;2023-12-28T14:23:16;3.53;;;2.60;;
43813;SDS011;29669;55.706;37.656;2023-12-28T14:25:45;2.47;;;2.22;;
43813;SDS011;29669;55.706;37.656;2023-12-28T14:28:21;3.50;;;2.30;;
43813;SDS011;29669;55.706;37.656;2023-12-28T14:30:54;4.15;;;2.63;;
43813;SDS011;29669;55.706;37.656;2023-12-28T14:33:22;3.50;;;2.45;;
43813;SDS011;29669;55.706;37.656;2023-12-28T14:36:00;3.97;;;2.63;;
43813;SDS011;29669;55.706;37.656;2023-12-28T14:38:37;3.80;;;2.30;;
43813;SDS011;29669;55.706;37.656;2023-12-28T14:41:07;2.20;;;1.90;;
43813;SDS011;29669;55.706;37.656;2023-12-28T14:43:40;3.13;;;2.25;;
43813;SDS011;29669;55.706;37.656;2023-12-28T14:46:55;3.75;;;2.50;;
43813;SDS011;29669;55.706;37.656;2023-12-28T14:58:32;6.18;;;3.17;;
43813;SDS011;29669;55.706;37.656;2023-12-28T15:02:50;4.05;;;2.50;;
43813;SDS011;29669;55.706;37.656;2023-12-28T15:05:18;8.45;;;4.95;;
43813;SDS011;29669;55.706;37.656;2023-12-28T15:08:06;5.28;;;2.90;;
43813;SDS011;29669;55.706;37.656;2023-12-28T15:10:51;6.22;;;3.55;;
43813;SDS011;29669;55.706;37.656;2023-12-28T15:13:37;6.63;;;3.25;;
43813;SDS011;29669;55.706;37.656;2023-12-28T15:16:40;4.35;;;2.90;;
43813;SDS011;29669;55.706;37.656;2023-12-28T15:19:37;5.43;;;3.35;;
43813;SDS011;29669;55.706;37.656;2023-12-28T15:22:17;3.42;;;2.25;;
43813;SDS011;29669;55.706;37.656;2023-12-28T15:24:54;4.00;;;2.50;;
43813;SDS011;29669;55.706;37.656;2023-12-28T15:27:56;8.15;;;3.30;;
43813;SDS011;29669;55.706;37.656;2023-12-28T15:31:08;5.93;;;2.80;;
43813;SDS011;29669;55.706;37.656;2023-12-28T15:34:05;4.70;;;2.20;;
43813;SDS011;29669;55.706;37.656;2023-12-28T15:36:49;3.60;;;2.55;;
43813;SDS011;29669;55.706;37.656;2023-12-28T15:39:38;5.95;;;2.90;;
43813;SDS011;29669;55.706;37.656;2023-12-28T15:42:24;5.10;;;3.17;;
43813;SDS011;29669;55.706;37.656;2023-12-28T15:45:16;4.70;;;2.63;;
43813;SDS011;29669;55.706;37.656;2023-12-28T15:47:56;4.80;;;2.42;;
43813;SDS011;29669;55.706;37.656;2023-12-28T15:50:49;5.15;;;2.67;;
43813;SDS011;29669;55.706;37.656;2023-12-28T15:53:55;5.22;;;3.08;;
43813;SDS011;29669;55.706;37.656;2023-12-28T15:56:47;4.50;;;3.50;;
43813;SDS011;29669;55.706;37.656;2023-12-28T15:59:29;6.47;;;3.08;;
43813;SDS011;29669;55.706;37.656;2023-12-28T16:02:07;5.63;;;3.22;;
43813;SDS011;29669;55.706;37.656;2023-12-28T16:05:05;4.38;;;2.88;;
43813;SDS011;29669;55.706;37.656;2023-12-28T16:07:34;7.25;;;3.72;;
43813;SDS011;29669;55.706;37.656;2023-12-28T16:10:16;5.88;;;3.30;;
43813;SDS011;29669;55.706;37.656;2023-12-28T16:12:52;3.95;;;2.80;;
43813;SDS011;29669;55.706;37.656;2023-12-28T16:15:50;5.22;;;3.35;;
43813;SDS011;29669;55.706;37.656;2023-12-28T16:19:23;5.80;;;3.10;;
43813;SDS011;29669;55.706;37.656;2023-12-28T16:22:23;6.60;;;3.30;;
43813;SDS011;29669;55.706;37.656;2023-12-28T16:26:07;7.10;;;2.72;;
43813;SDS011;29669;55.706;37.656;2023-12-28T16:29:44;3.75;;;2.65;;
43813;SDS011;29669;55.706;37.656;2023-12-28T16:32:35;3.67;;;2.45;;
43813;SDS011;29669;55.706;37.656;2023-12-28T16:36:15;3.85;;;2.78;;
43813;SDS011;29669;55.706;37.656;2023-12-28T16:39:40;4.32;;;3.00;;
43813;SDS011;29669;55.706;37.656;2023-12-28T16:43:02;4.38;;;2.53;;
43813;SDS011;29669;55.706;37.656;2023-12-28T16:45:47;3.67;;;2.38;;
43813;SDS011;29669;55.706;37.656;2023-12-28T16:50:54;3.67;;;2.95;;
43813;SDS011;29669;55.706;37.656;2023-12-28T16:53:51;4.75;;;2.70;;
43813;SDS011;29669;55.706;37.656;2023-12-28T16:56:31;4.30;;;2.10;;
43813;SDS011;29669;55.706;37.656;2023-12-28T16:59:06;3.10;;;2.50;;
43813;SDS011;29669;55.706;37.656;2023-12-28T17:01:36;4.00;;;2.28;;
43813;SDS011;29669;55.706;37.656;2023-12-28T17:04:31;2.95;;;2.22;;
43813;SDS011;29669;55.706;37.656;2023-12-28T17:07:43;2.25;;;1.90;;
43813;SDS011;29669;55.706;37.656;2023-12-28T17:10:18;4.82;;;2.92;;
43813;SDS011;29669;55.706;37.656;2023-12-28T17:12:53;3.17;;;2.20;;
43813;SDS011;29669;55.706;37.656;2023-12-28T17:16:17;6.32;;;2.22;;
43813;SDS011;29669;55.706;37.656;2023-12-28T17:19:00;3.67;;;2.13;;
43813;SDS011;29669;55.706;37.656;2023-12-28T17:23:16;3.40;;;2.15;;
43813;SDS011;29669;55.706;37.656;2023-12-28T18:16:27;3.53;;;1.73;;
43813;SDS011;29669;55.706;37.656;2023-12-28T18:18:54;2.47;;;1.83;;
43813;SDS011;29669;55.706;37.656;2023-12-28T18:21:22;1.90;;;1.65;;
43813;SDS011;29669;55.706;37.656;2023-12-28T18:23:50;2.60;;;1.85;;
43813;SDS011;29669;55.706;37.656;2023-12-28T18:26:28;2.28;;;1.98;;
43813;SDS011;29669;55.706;37.656;2023-12-28T18:28:59;2.42;;;1.63;;
43813;SDS011;29669;55.706;37.656;2023-12-28T18:32:23;2.28;;;1.90;;
43813;SDS011;29669;55.706;37.656;2023-12-28T18:34:53;1.65;;;1.50;;
43813;SDS011;29669;55.706;37.656;2023-12-28T18:47:23;2.88;;;1.70;;
43813;SDS011;29669;55.706;37.656;2023-12-28T18:53:33;1.33;;;1.23;;
43813;SDS011;29669;55.706;37.656;2023-12-28T18:56:28;3.92;;;1.83;;